sensor_id;sensor_type;location;lat;lon;timestamp;P1;durP1;ratioP1;P2;durP2;ratioP2
77168;SDS011;66281;45.114;20.730;2023-03-01T00:08:09;37.13;;;17.92;;
77168;SDS011;66281;45.114;20.730;2023-03-01T00:18:10;33.30;;;17.60;;
77168;SDS011;66281;45.114;20.730;2023-03-01T00:28:10;37.80;;;17.50;;
77168;SDS011;66281;45.114;20.730;2023-03-01T00:38:11;42.63;;;20.13;;
77168;SDS011;66281;45.114;20.730;2023-03-01T00:48:11;36.92;;;20.33;;
77168;SDS011;66281;45.114;20.730;2023-03-01T00:58:12;39.47;;;18.52;;
77168;SDS011;66281;45.114;20.730;2023-03-01T01:08:12;40.03;;;20.15;;
77168;SDS011;66281;45.114;20.730;2023-03-01T01:18:13;38.45;;;21.20;;
77168;SDS011;66281;45.114;20.730;2023-03-01T01:28:13;41.50;;;20.10;;
77168;SDS011;66281;45.114;20.730;2023-03-01T01:38:14;42.25;;;21.45;;
77168;SDS011;66281;45.114;20.730;2023-03-01T01:48:16;46.00;;;22.90;;
77168;SDS011;66281;45.114;20.730;2023-03-01T01:58:20;39.50;;;20.60;;
77168;SDS011;66281;45.114;20.730;2023-03-01T02:08:23;43.33;;;20.75;;
77168;SDS011;66281;45.114;20.730;2023-03-01T02:18:25;40.27;;;21.37;;
77168;SDS011;66281;45.114;20.730;2023-03-01T02:28:36;45.47;;;22.30;;
77168;SDS011;66281;45.114;20.730;2023-03-01T02:38:37;42.70;;;20.93;;
77168;SDS011;66281;45.114;20.730;2023-03-01T02:48:51;42.37;;;21.20;;
77168;SDS011;66281;45.114;20.730;2023-03-01T02:58:53;43.53;;;22.83;;
77168;SDS011;66281;45.114;20.730;2023-03-01T03:08:55;42.20;;;21.30;;
77168;SDS011;66281;45.114;20.730;2023-03-01T03:18:55;43.53;;;20.40;;
77168;SDS011;66281;45.114;20.730;2023-03-01T03:28:56;38.40;;;19.52;;
77168;SDS011;66281;45.114;20.730;2023-03-01T03:38:57;39.27;;;20.17;;
77168;SDS011;66281;45.114;20.730;2023-03-01T03:48:57;41.17;;;21.23;;
77168;SDS011;66281;45.114;20.730;2023-03-01T03:58:58;39.88;;;20.08;;
77168;SDS011;66281;45.114;20.730;2023-03-01T04:08:58;41.97;;;20.87;;
77168;SDS011;66281;45.114;20.730;2023-03-01T04:18:58;41.58;;;20.98;;
77168;SDS011;66281;45.114;20.730;2023-03-01T04:28:59;43.08;;;22.70;;
77168;SDS011;66281;45.114;20.730;2023-03-01T04:39:00;99.00;;;42.92;;
77168;SDS011;66281;45.114;20.730;2023-03-01T04:49:00;144.73;;;58.03;;
77168;SDS011;66281;45.114;20.730;2023-03-01T04:59:01;70.27;;;36.23;;
77168;SDS011;66281;45.114;20.730;2023-03-01T05:09:02;49.17;;;26.10;;
77168;SDS011;66281;45.114;20.730;2023-03-01T05:19:03;49.75;;;25.15;;
77168;SDS011;66281;45.114;20.730;2023-03-01T05:29:04;46.33;;;24.93;;
77168;SDS011;66281;45.114;20.730;2023-03-01T05:39:04;56.30;;;26.90;;
77168;SDS011;66281;45.114;20.730;2023-03-01T05:49:05;63.78;;;30.27;;
77168;SDS011;66281;45.114;20.730;2023-03-01T05:59:05;64.45;;;32.13;;
77168;SDS011;66281;45.114;20.730;2023-03-01T06:09:06;96.13;;;38.50;;
77168;SDS011;66281;45.114;20.730;2023-03-01T06:19:07;95.40;;;45.40;;
77168;SDS011;66281;45.114;20.730;2023-03-01T06:29:07;107.18;;;48.10;;
77168;SDS011;66281;45.114;20.730;2023-03-01T06:39:08;53.80;;;26.02;;
77168;SDS011;66281;45.114;20.730;2023-03-01T06:49:08;65.30;;;33.03;;
77168;SDS011;66281;45.114;20.730;2023-03-01T06:59:09;111.65;;;47.75;;
77168;SDS011;66281;45.114;20.730;2023-03-01T07:09:09;95.23;;;44.23;;
77168;SDS011;66281;45.114;20.730;2023-03-01T07:19:10;106.60;;;53.83;;
77168;SDS011;66281;45.114;20.730;2023-03-01T07:29:10;119.15;;;50.50;;
77168;SDS011;66281;45.114;20.730;2023-03-01T07:39:11;76.57;;;36.37;;
77168;SDS011;66281;45.114;20.730;2023-03-01T07:49:11;68.60;;;31.85;;
77168;SDS011;66281;45.114;20.730;2023-03-01T07:59:12;102.32;;;47.40;;
77168;SDS011;66281;45.114;20.730;2023-03-01T08:09:12;64.90;;;32.75;;
77168;SDS011;66281;45.114;20.730;2023-03-01T08:19:13;75.07;;;35.00;;
77168;SDS011;66281;45.114;20.730;2023-03-01T08:29:13;65.40;;;32.40;;
77168;SDS011;66281;45.114;20.730;2023-03-01T08:39:15;62.40;;;32.25;;
77168;SDS011;66281;45.114;20.730;2023-03-01T08:49:17;54.75;;;30.10;;
77168;SDS011;66281;45.114;20.730;2023-03-01T08:59:19;46.67;;;25.07;;
77168;SDS011;66281;45.114;20.730;2023-03-01T09:09:19;41.80;;;22.75;;
77168;SDS011;66281;45.114;20.730;2023-03-01T09:19:19;38.05;;;20.50;;
77168;SDS011;66281;45.114;20.730;2023-03-01T09:29:20;65.73;;;31.33;;
77168;SDS011;66281;45.114;20.730;2023-03-01T09:39:20;43.15;;;23.85;;
77168;SDS011;66281;45.114;20.730;2023-03-01T09:49:23;39.40;;;22.33;;
77168;SDS011;66281;45.114;20.730;2023-03-01T09:59:27;27.13;;;15.60;;
77168;SDS011;66281;45.114;20.730;2023-03-01T10:09:38;27.50;;;14.02;;
77168;SDS011;66281;45.114;20.730;2023-03-01T10:19:40;29.53;;;16.67;;
77168;SDS011;66281;45.114;20.730;2023-03-01T10:29:48;20.63;;;12.47;;
77168;SDS011;66281;45.114;20.730;2023-03-01T10:40:02;21.38;;;12.23;;
77168;SDS011;66281;45.114;20.730;2023-03-01T10:50:05;17.37;;;10.63;;
77168;SDS011;66281;45.114;20.730;2023-03-01T11:00:22;16.17;;;10.93;;
77168;SDS011;66281;45.114;20.730;2023-03-01T11:10:25;14.80;;;9.35;;
77168;SDS011;66281;45.114;20.730;2023-03-01T11:20:33;16.60;;;9.30;;
77168;SDS011;66281;45.114;20.730;2023-03-01T11:30:44;17.70;;;9.83;;
77168;SDS011;66281;45.114;20.730;2023-03-01T11:40:52;16.83;;;9.37;;
77168;SDS011;66281;45.114;20.730;2023-03-01T11:50:55;15.60;;;10.30;;
77168;SDS011;66281;45.114;20.730;2023-03-01T12:53:07;26.03;;;15.10;;
77168;SDS011;66281;45.114;20.730;2023-03-01T13:03:56;26.42;;;13.77;;
77168;SDS011;66281;45.114;20.730;2023-03-01T13:24:23;51.83;;;25.93;;
77168;SDS011;66281;45.114;20.730;2023-03-01T13:34:39;53.28;;;26.15;;
77168;SDS011;66281;45.114;20.730;2023-03-01T13:44:41;33.53;;;18.60;;
77168;SDS011;66281;45.114;20.730;2023-03-01T13:54:43;21.03;;;12.27;;
77168;SDS011;66281;45.114;20.730;2023-03-01T14:04:44;12.75;;;8.27;;
77168;SDS011;66281;45.114;20.730;2023-03-01T14:25:45;9.17;;;6.10;;
77168;SDS011;66281;45.114;20.730;2023-03-01T14:35:33;28.93;;;15.00;;
77168;SDS011;66281;45.114;20.730;2023-03-01T14:45:35;43.10;;;20.85;;
77168;SDS011;66281;45.114;20.730;2023-03-01T14:55:37;19.20;;;8.10;;
77168;SDS011;66281;45.114;20.730;2023-03-01T15:05:41;15.27;;;8.63;;
77168;SDS011;66281;45.114;20.730;2023-03-01T15:15:43;25.27;;;14.27;;
77168;SDS011;66281;45.114;20.730;2023-03-01T15:25:44;25.70;;;13.80;;
77168;SDS011;66281;45.114;20.730;2023-03-01T15:35:46;25.43;;;12.17;;
77168;SDS011;66281;45.114;20.730;2023-03-01T15:45:55;47.57;;;23.50;;
77168;SDS011;66281;45.114;20.730;2023-03-01T15:55:56;67.27;;;36.37;;
77168;SDS011;66281;45.114;20.730;2023-03-01T16:05:56;50.83;;;24.13;;
77168;SDS011;66281;45.114;20.730;2023-03-01T16:15:57;55.23;;;24.63;;
77168;SDS011;66281;45.114;20.730;2023-03-01T16:25:59;37.38;;;16.58;;
77168;SDS011;66281;45.114;20.730;2023-03-01T16:36:09;25.30;;;12.63;;
77168;SDS011;66281;45.114;20.730;2023-03-01T16:46:11;50.33;;;22.13;;
77168;SDS011;66281;45.114;20.730;2023-03-01T16:56:12;45.75;;;22.75;;
77168;SDS011;66281;45.114;20.730;2023-03-01T17:06:15;35.73;;;18.23;;
77168;SDS011;66281;45.114;20.730;2023-03-01T17:16:18;41.83;;;21.30;;
77168;SDS011;66281;45.114;20.730;2023-03-01T17:26:19;36.05;;;17.77;;
77168;SDS011;66281;45.114;20.730;2023-03-01T17:36:20;70.93;;;19.58;;
77168;SDS011;66281;45.114;20.730;2023-03-01T17:46:20;35.37;;;15.63;;
77168;SDS011;66281;45.114;20.730;2023-03-01T17:56:20;27.80;;;15.98;;
77168;SDS011;66281;45.114;20.730;2023-03-01T18:06:25;37.25;;;16.92;;
77168;SDS011;66281;45.114;20.730;2023-03-01T18:16:26;33.20;;;16.10;;
77168;SDS011;66281;45.114;20.730;2023-03-01T18:26:27;34.47;;;18.27;;
77168;SDS011;66281;45.114;20.730;2023-03-01T18:36:28;70.90;;;30.48;;
77168;SDS011;66281;45.114;20.730;2023-03-01T18:46:33;96.70;;;38.10;;
77168;SDS011;66281;45.114;20.730;2023-03-01T18:56:33;57.50;;;29.77;;
77168;SDS011;66281;45.114;20.730;2023-03-01T19:06:34;68.73;;;33.00;;
77168;SDS011;66281;45.114;20.730;2023-03-01T19:16:35;42.17;;;23.83;;
77168;SDS011;66281;45.114;20.730;2023-03-01T19:26:36;37.50;;;21.38;;
77168;SDS011;66281;45.114;20.730;2023-03-01T19:36:37;48.75;;;22.95;;
77168;SDS011;66281;45.114;20.730;2023-03-01T19:46:38;51.33;;;25.30;;
77168;SDS011;66281;45.114;20.730;2023-03-01T19:56:39;40.50;;;21.40;;
77168;SDS011;66281;45.114;20.730;2023-03-01T20:06:40;48.15;;;23.08;;
77168;SDS011;66281;45.114;20.730;2023-03-01T20:16:40;32.42;;;16.67;;
77168;SDS011;66281;45.114;20.730;2023-03-01T20:26:41;36.28;;;18.83;;
77168;SDS011;66281;45.114;20.730;2023-03-01T20:36:41;56.65;;;24.55;;
77168;SDS011;66281;45.114;20.730;2023-03-01T20:46:42;49.22;;;20.75;;
77168;SDS011;66281;45.114;20.730;2023-03-01T20:56:42;36.67;;;18.47;;
77168;SDS011;66281;45.114;20.730;2023-03-01T21:06:43;52.65;;;24.08;;
77168;SDS011;66281;45.114;20.730;2023-03-01T21:16:44;35.08;;;16.23;;
77168;SDS011;66281;45.114;20.730;2023-03-01T21:26:44;32.00;;;15.97;;
77168;SDS011;66281;45.114;20.730;2023-03-01T21:36:45;33.15;;;14.85;;
77168;SDS011;66281;45.114;20.730;2023-03-01T21:46:45;26.25;;;14.50;;
77168;SDS011;66281;45.114;20.730;2023-03-01T21:56:48;28.17;;;14.20;;
77168;SDS011;66281;45.114;20.730;2023-03-01T22:06:48;29.23;;;13.75;;
77168;SDS011;66281;45.114;20.730;2023-03-01T22:16:49;25.58;;;13.60;;
77168;SDS011;66281;45.114;20.730;2023-03-01T22:26:50;46.70;;;20.23;;
77168;SDS011;66281;45.114;20.730;2023-03-01T22:36:51;36.50;;;16.47;;
77168;SDS011;66281;45.114;20.730;2023-03-01T22:46:52;31.00;;;14.98;;
77168;SDS011;66281;45.114;20.730;2023-03-01T22:56:52;34.58;;;16.67;;
77168;SDS011;66281;45.114;20.730;2023-03-01T23:06:53;32.92;;;14.10;;
77168;SDS011;66281;45.114;20.730;2023-03-01T23:16:53;35.95;;;16.85;;
77168;SDS011;66281;45.114;20.730;2023-03-01T23:26:54;32.10;;;14.90;;
77168;SDS011;66281;45.114;20.730;2023-03-01T23:36:54;32.30;;;14.88;;
77168;SDS011;66281;45.114;20.730;2023-03-01T23:46:55;29.00;;;13.95;;
77168;SDS011;66281;45.114;20.730;2023-03-01T23:56:55;27.30;;;12.98;;
